Adams Gardens, Texas
Current Conditions -  °F | °C
As of 1:52 AM on Friday 19 Dec 2014 (Local Time) from KHRL Reporting Station
Haze Haze  
Wind Chill: 68°   Ceiling: 6500
Heat Index: 68°   Visibility: 5mi
Dew Point: 67°   Wind: 5mph
Humidity: 96%   Direction: 280°W
Pressure: 29.96"   Gusts: NA
Location:  26.2089°N, 97.6849°W
Report Text: KHRL 190752Z 28004KT 5SM BR SCT019 OVC065 20/19 A2996 RMK AO2 SLP146 T02000194
Loading
Personal Weather Stations






























Interactive Weather Map New forecast layout! Learn more

10-Day Weather Forecast

Advertisements
Track Severe Weather on mobile